Tain, United Kingdom
Current Conditions -  °F | °C
As of 7:50 AM on Saturday 20 Dec 2014 (Local Time) from EGPE Reporting Station
Rain Showers Rain Showers  
Wind Chill: 31°   Ceiling: Unl
Heat Index: 41°   Visibility: 6mi
Dew Point: 34°   Wind: 24mph
Humidity: 76%   Direction: 290°WNW
Pressure: 29.83"   Gusts: NA
Location:  57.81°N, 4.06°W
Report Text: EGPE 200750Z 29021KT 9999 -SHRA FEW015 SCT033 05/01 Q1010
Loading
Personal Weather Stations






























Interactive Weather Map New forecast layout! Learn more

10-Day Weather Forecast

Advertisements
Track Severe Weather on mobile